Time;durP1;ratioP1;P1;durP2;ratioP2;P2;SDS_P1;SDS_P2;PMS_P1;PMS_P2;Temp;Humidity;BMP_temperature;BMP_pressure;BME280_temperature;BME280_humidity;BME280_pressure;Samples;Min_cycle;Max_cycle;Signal;HPM_P1;HPM_P2
2023/11/06 00:02:53;;;;;;;0.00;0.00;;;;;;;10.55;72.40;98613.25;15677913;28;20079;-53
2023/11/06 00:10:28;;;;;;;0.00;0.00;;;;;;;10.71;71.47;98626.44;15677819;28;20078;-50
2023/11/06 00:18:01;;;;;;;0.00;0.00;;;;;;;10.65;69.85;98640.13;15660007;28;20095;-50
2023/11/06 00:25:36;;;;;;;0.17;0.17;;;;;;;10.54;68.91;98658.06;15676938;28;20102;-50
2023/11/06 00:33:10;;;;;;;0.17;0.17;;;;;;;10.64;71.29;98698.34;15680738;28;20037;-51
2023/11/06 00:40:45;;;;;;;;;;;;;;;10.09;72.50;98702.25;15675399;28;20041;-51
2023/11/06 00:48:18;;;;;;;0.08;0.08;;;;;;;10.16;72.30;98718.91;15658111;28;20019;-51
2023/11/06 00:55:53;;;;;;;0.00;0.00;;;;;;;10.30;72.13;98737.28;15657834;28;20141;-53
2023/11/06 01:03:26;;;;;;;0.00;0.00;;;;;;;10.02;73.12;98744.53;15670168;23;20106;-74
2023/11/06 01:11:01;;;;;;;0.38;0.38;;;;;;;9.95;74.88;98762.72;15696200;28;20037;-73
2023/11/06 01:18:35;;;;;;;0.00;0.00;;;;;;;10.02;74.64;98771.34;15725433;28;20036;-73
2023/11/06 01:26:09;;;;;;;0.13;0.10;;;;;;;10.03;75.77;98797.09;15681270;28;20045;-74
2023/11/06 01:33:43;;;;;;;0.15;0.15;;;;;;;9.76;76.44;98802.47;15708454;28;20117;-75
2023/11/06 01:41:18;;;;;;;0.17;0.10;;;;;;;9.93;75.00;98805.03;15679734;28;20033;-73
2023/11/06 01:48:52;;;;;;;0.47;0.10;;;;;;;10.11;74.64;98822.63;15690354;28;20067;-73
2023/11/06 01:56:29;;;;;;;0.00;0.00;;;;;;;10.00;74.05;98819.03;15724321;28;20040;-73
2023/11/06 02:04:06;;;;;;;0.10;0.08;;;;;;;10.02;74.32;98857.09;15649317;28;1164027;-72
2023/11/06 02:11:41;;;;;;;0.00;0.00;;;;;;;10.15;73.44;98859.38;15706214;28;20053;-74
2023/11/06 02:19:14;;;;;;;0.00;0.00;;;;;;;10.11;72.31;98879.72;15699223;28;20076;-74
2023/11/06 02:26:56;;;;;;;0.00;0.00;;;;;;;9.88;72.57;98896.91;15696286;28;20040;-75
2023/11/06 02:34:30;;;;;;;0.00;0.00;;;;;;;9.97;71.39;98914.16;15691963;28;20051;-76
2023/11/06 02:42:05;;;;;;;0.10;0.10;;;;;;;10.13;70.01;98908.97;15717186;28;20048;-73
2023/11/06 02:49:38;;;;;;;1.00;0.90;;;;;;;10.04;69.18;98940.78;15727650;28;20128;-74
2023/11/06 02:57:12;;;;;;;0.00;0.00;;;;;;;9.98;69.21;98947.16;15724886;28;20055;-74
2023/11/06 03:04:46;;;;;;;0.10;0.10;;;;;;;10.13;68.72;98974.13;15712845;28;20048;-76
2023/11/06 03:12:22;;;;;;;0.00;0.00;;;;;;;9.98;68.82;98987.34;15728065;28;20106;-75
2023/11/06 03:19:55;;;;;;;0.00;0.00;;;;;;;10.08;68.16;99000.88;15708811;28;20288;-76
2023/11/06 03:27:30;;;;;;;0.00;0.00;;;;;;;10.23;67.82;99017.13;15726849;28;20037;-74
2023/11/06 03:35:03;;;;;;;0.00;0.00;;;;;;;9.91;69.16;99030.41;15716493;28;20048;-73
2023/11/06 03:42:39;;;;;;;0.00;0.00;;;;;;;9.73;69.52;99032.56;15729108;28;20045;-75
2023/11/06 03:50:12;;;;;;;0.10;0.10;;;;;;;9.66;69.85;99051.50;15728225;28;20037;-73
2023/11/06 03:57:47;;;;;;;0.00;0.00;;;;;;;9.49;70.42;99054.16;15708277;28;20494;-72
2023/11/06 04:05:20;;;;;;;0.00;0.00;;;;;;;9.49;70.75;99062.22;15722276;28;20066;-74
2023/11/06 04:12:57;;;;;;;0.00;0.00;;;;;;;9.26;71.30;99076.56;15704548;28;20060;-73
2023/11/06 04:20:31;;;;;;;0.00;0.00;;;;;;;9.42;70.75;99067.75;15720540;28;20051;-72
2023/11/06 04:28:07;;;;;;;0.00;0.00;;;;;;;9.30;70.95;99098.31;15727770;28;20055;-72
2023/11/06 04:35:42;;;;;;;0.00;0.00;;;;;;;9.11;71.84;99103.88;15704605;28;20057;-72
2023/11/06 04:43:16;;;;;;;0.00;0.00;;;;;;;9.47;70.98;99117.91;15711587;28;20120;-74
2023/11/06 04:50:50;;;;;;;0.00;0.00;;;;;;;9.83;70.08;99127.28;15701270;28;20498;-72
2023/11/06 04:58:27;;;;;;;0.00;0.00;;;;;;;9.85;69.88;99135.09;15723645;28;20487;-72
2023/11/06 05:06:00;;;;;;;0.10;0.10;;;;;;;9.60;71.17;99136.31;15704572;28;20147;-74
2023/11/06 05:13:35;;;;;;;0.00;0.00;;;;;;;9.85;69.66;99154.66;15720465;28;20462;-73
2023/11/06 05:21:08;;;;;;;0.00;0.00;;;;;;;9.94;69.90;99155.06;15712875;28;20097;-75
2023/11/06 05:28:43;;;;;;;0.00;0.00;;;;;;;9.70;69.53;99160.59;15729461;28;20407;-73
2023/11/06 05:36:16;;;;;;;0.00;0.00;;;;;;;9.71;70.24;99178.28;15720150;22;20053;-49
2023/11/06 05:43:54;;;;;;;0.00;0.00;;;;;;;10.09;69.15;99183.97;15656997;28;20064;-50
2023/11/06 05:51:39;;;;;;;0.00;0.00;;;;;;;9.84;69.68;99203.13;15683191;28;20498;-52
2023/11/06 05:59:13;;;;;;;0.00;0.00;;;;;;;10.21;68.78;99219.53;15683711;28;20037;-50
2023/11/06 06:06:50;;;;;;;0.00;0.00;;;;;;;10.26;69.01;99233.06;15673772;28;20045;-52
2023/11/06 06:14:25;;;;;;;0.20;0.20;;;;;;;10.16;68.79;99241.72;15686189;28;20107;-51
2023/11/06 06:21:58;;;;;;;0.00;0.00;;;;;;;10.15;69.03;99252.69;15693455;28;20055;-51
2023/11/06 06:29:34;;;;;;;0.00;0.00;;;;;;;10.20;68.97;99266.19;15701290;28;20040;-51
2023/11/06 06:37:07;;;;;;;0.00;0.00;;;;;;;10.00;70.09;99285.44;15726027;28;20075;-51
2023/11/06 06:44:41;;;;;;;;;;;;;;;10.36;68.96;99299.47;15767324;28;20081;-52
2023/11/06 06:52:15;;;;;;;0.00;0.00;;;;;;;10.14;70.43;99316.22;15771797;28;19924;-51
2023/11/06 06:59:49;;;;;;;0.00;0.00;;;;;;;10.20;70.05;99307.22;15760392;28;20596;-51
2023/11/06 07:07:23;;;;;;;0.20;0.20;;;;;;;10.40;69.36;99317.50;15773950;28;20451;-51
2023/11/06 07:14:58;;;;;;;0.00;0.00;;;;;;;10.63;69.26;99321.91;15770874;28;20058;-53
2023/11/06 07:22:32;;;;;;;0.00;0.00;;;;;;;10.55;68.67;99330.34;15751684;28;20052;-51
2023/11/06 07:30:08;;;;;;;0.00;0.00;;;;;;;11.10;67.30;99364.44;15742464;28;20416;-51
2023/11/06 07:37:43;;;;;;;0.00;0.00;;;;;;;10.82;68.18;99372.59;15748643;28;20062;-52
2023/11/06 07:45:18;;;;;;;0.00;0.00;;;;;;;10.64;68.80;99379.88;15749249;28;20505;-56
2023/11/06 07:52:53;;;;;;;0.00;0.00;;;;;;;10.96;68.63;99396.19;15739463;28;20132;-52
2023/11/06 08:00:30;;;;;;;1.83;1.13;;;;;;;11.43;67.62;99393.09;15740893;28;20140;-55
2023/11/06 08:08:04;;;;;;;0.00;0.00;;;;;;;11.48;66.91;99413.84;15753811;28;20063;-51
2023/11/06 08:15:39;;;;;;;0.00;0.00;;;;;;;12.05;65.18;99421.56;15751403;28;20055;-52
2023/11/06 08:23:12;;;;;;;0.08;0.08;;;;;;;12.33;64.22;99433.97;15745988;28;20041;-51
2023/11/06 08:30:47;;;;;;;0.00;0.00;;;;;;;12.66;64.09;99442.88;15737236;28;20047;-51
2023/11/06 08:38:20;;;;;;;0.00;0.00;;;;;;;13.09;63.08;99457.25;15738595;28;20075;-49
2023/11/06 08:45:56;;;;;;;0.75;0.68;;;;;;;12.64;63.61;99466.56;15742981;28;20047;-51
2023/11/06 08:53:29;;;;;;;0.75;0.65;;;;;;;12.42;64.09;99496.22;15743971;28;20489;-50
2023/11/06 09:01:06;;;;;;;0.00;0.00;;;;;;;11.57;67.11;99506.41;15719335;28;20072;-51
2023/11/06 09:08:43;;;;;;;0.00;0.00;;;;;;;11.89;66.23;99512.00;15721236;28;20048;-52
2023/11/06 09:16:18;;;;;;;0.00;0.00;;;;;;;12.41;64.49;99522.31;15725573;28;20066;-51
2023/11/06 09:23:51;;;;;;;0.00;0.00;;;;;;;12.18;66.63;99549.47;15741747;28;20454;-51
2023/11/06 09:31:27;;;;;;;0.32;0.22;;;;;;;12.45;64.58;99554.91;15738208;28;20040;-52
2023/11/06 09:39:11;;;;;;;0.00;0.00;;;;;;;12.56;64.42;99562.03;15719566;28;20036;-52
2023/11/06 09:46:48;;;;;;;0.00;0.00;;;;;;;12.77;63.63;99568.44;15736309;28;20114;-51
2023/11/06 09:54:24;;;;;;;0.00;0.00;;;;;;;12.99;63.08;99590.78;15734661;28;20036;-53
2023/11/06 10:02:00;;;;;;;0.00;0.00;;;;;;;12.51;63.12;99596.97;15717762;28;20043;-50
2023/11/06 10:09:34;;;;;;;0.00;0.00;;;;;;;12.60;62.12;99608.13;15693308;28;20160;-54
2023/11/06 10:17:09;;;;;;;0.80;0.75;;;;;;;12.79;61.33;99605.91;15734860;28;20454;-52
2023/11/06 10:24:49;;;;;;;0.32;0.32;;;;;;;13.19;58.66;99619.78;15735263;28;20072;-50
2023/11/06 10:32:28;;;;;;;0.45;0.22;;;;;;;13.63;58.54;99635.03;15735404;28;20036;-54
2023/11/06 10:40:01;;;;;;;0.00;0.00;;;;;;;13.27;58.77;99638.22;15735351;28;20124;-50
2023/11/06 10:47:43;;;;;;;0.00;0.00;;;;;;;13.08;58.62;99650.41;15734925;28;20127;-51
2023/11/06 10:55:17;;;;;;;0.00;0.00;;;;;;;12.95;58.98;99675.03;15717267;28;20056;-50
2023/11/06 11:02:52;;;;;;;0.00;0.00;;;;;;;13.18;58.92;99674.75;15736157;28;20511;-51
2023/11/06 11:10:27;;;;;;;0.00;0.00;;;;;;;12.99;59.34;99678.84;15741126;28;20048;-51
2023/11/06 11:18:05;;;;;;;0.00;0.00;;;;;;;13.71;58.60;99678.53;15742504;28;20087;-53
2023/11/06 11:26:00;;;;;;;0.00;0.00;;;;;;;12.69;60.05;99698.97;15749680;28;20222;-55
2023/11/06 11:33:56;;;;;;;0.00;0.00;;;;;;;13.05;60.59;99710.16;15742884;28;20068;-52
2023/11/06 11:41:33;;;;;;;0.00;0.00;;;;;;;12.64;60.88;99725.00;15743857;28;20036;-52
2023/11/06 11:49:09;;;;;;;0.00;0.00;;;;;;;13.01;60.10;99711.75;15737713;22;20063;-50
2023/11/06 11:56:52;;;;;;;0.43;0.43;;;;;;;13.76;57.99;99724.44;15669050;28;20528;-52
2023/11/06 12:04:27;;;;;;;1.73;0.53;;;;;;;12.98;58.86;99725.72;15692621;28;20041;-50
2023/11/06 12:12:00;;;;;;;0.00;0.00;;;;;;;12.92;59.02;99743.69;15684304;28;20045;-51
2023/11/06 12:19:43;;;;;;;0.20;0.20;;;;;;;12.97;58.95;99741.06;15695861;28;20263;-49
2023/11/06 12:27:17;;;;;;;0.00;0.00;;;;;;;12.50;60.78;99754.97;15717335;28;20504;-48
2023/11/06 12:35:06;;;;;;;0.00;0.00;;;;;;;13.16;59.22;99763.13;15690312;28;20129;-50
2023/11/06 12:42:42;;;;;;;0.00;0.00;;;;;;;12.96;59.84;99757.44;15689761;28;20045;-50
2023/11/06 12:50:19;;;;;;;0.00;0.00;;;;;;;13.18;59.75;99762.84;15709755;28;20095;-54
2023/11/06 12:58:03;;;;;;;0.00;0.00;;;;;;;13.01;60.26;99776.41;15680655;28;20045;-49
2023/11/06 13:05:37;;;;;;;0.00;0.00;;;;;;;13.11;59.74;99764.94;15678187;28;20048;-52
2023/11/06 13:13:12;;;;;;;0.00;0.00;;;;;;;13.58;59.01;99775.22;15698155;28;20068;-49
2023/11/06 13:20:53;;;;;;;0.03;0.03;;;;;;;13.97;58.48;99776.66;15686763;28;20489;-51
2023/11/06 13:28:26;;;;;;;0.00;0.00;;;;;;;13.38;59.87;99784.72;15691757;28;20111;-52
2023/11/06 13:36:02;;;;;;;0.00;0.00;;;;;;;13.73;59.06;99789.66;15701200;28;20136;-49
2023/11/06 13:43:36;;;;;;;0.00;0.00;;;;;;;13.97;57.63;99789.34;15701932;28;20045;-51
2023/11/06 13:51:13;;;;;;;0.00;0.00;;;;;;;13.87;57.41;99786.56;15682728;28;20067;-51
2023/11/06 13:58:46;;;;;;;0.00;0.00;;;;;;;13.40;58.20;99800.63;15681436;28;20128;-49
2023/11/06 14:06:23;;;;;;;0.00;0.00;;;;;;;13.96;56.64;99802.03;15666922;28;20099;-51
2023/11/06 14:14:05;;;;;;;0.00;0.00;;;;;;;13.39;56.84;99818.66;15692417;28;20058;-51
2023/11/06 14:21:40;;;;;;;0.00;0.00;;;;;;;13.82;55.38;99832.38;15683442;28;20128;-48
2023/11/06 14:29:15;;;;;;;0.00;0.00;;;;;;;13.41;54.93;99837.28;15692275;28;20041;-50
2023/11/06 14:36:50;;;;;;;0.00;0.00;;;;;;;13.12;55.63;99850.91;15677944;28;20052;-50
2023/11/06 14:44:23;;;;;;;0.00;0.00;;;;;;;13.10;55.94;99849.50;15709519;28;20037;-50
2023/11/06 14:51:58;;;;;;;0.00;0.00;;;;;;;13.23;55.54;99862.66;15705555;28;20490;-54
2023/11/06 14:59:32;;;;;;;0.90;0.73;;;;;;;13.53;55.39;99867.63;15713107;28;20047;-49
2023/11/06 15:07:09;;;;;;;1.88;0.28;;;;;;;13.00;55.66;99877.13;15673847;28;20045;-50
2023/11/06 15:14:45;;;;;;;0.05;0.05;;;;;;;12.74;56.55;99884.00;15690471;28;20047;-47
2023/11/06 15:22:20;;;;;;;0.88;0.63;;;;;;;12.99;55.44;99887.06;15698027;28;20048;-53
2023/11/06 15:29:55;;;;;;;0.00;0.00;;;;;;;13.08;55.04;99892.06;15681430;28;20060;-53
2023/11/06 15:37:30;;;;;;;0.00;0.00;;;;;;;12.92;55.53;99899.91;15715121;28;20165;-50
2023/11/06 15:45:06;;;;;;;0.00;0.00;;;;;;;12.63;55.35;99904.53;15702998;28;20099;-53
2023/11/06 15:52:41;;;;;;;0.17;0.17;;;;;;;12.86;55.03;99902.75;15670625;28;20076;-50
2023/11/06 16:00:17;;;;;;;0.63;0.30;;;;;;;12.77;55.72;99911.25;15688865;28;20564;-49
2023/11/06 16:07:52;;;;;;;0.00;0.00;;;;;;;12.83;55.57;99917.56;15664959;28;20057;-48
2023/11/06 16:15:26;;;;;;;0.00;0.00;;;;;;;12.66;56.62;99919.41;15695152;28;20052;-52
2023/11/06 16:23:04;;;;;;;0.00;0.00;;;;;;;12.52;57.44;99924.28;15674103;28;20056;-51
2023/11/06 16:30:38;;;;;;;0.00;0.00;;;;;;;12.70;57.68;99934.84;15687829;28;20127;-50
2023/11/06 16:38:12;;;;;;;;;;;;;;;12.79;57.75;99937.13;15689982;28;20048;-52
2023/11/06 16:45:45;;;;;;;0.00;0.00;;;;;;;12.62;57.93;99937.09;15683930;28;19978;-51
2023/11/06 16:53:21;;;;;;;0.00;0.00;;;;;;;12.09;59.56;99955.25;15686679;28;20493;-50
2023/11/06 17:00:55;;;;;;;0.00;0.00;;;;;;;12.24;58.44;99949.34;15687162;28;20408;-53
2023/11/06 17:08:30;;;;;;;0.28;0.20;;;;;;;12.26;58.15;99960.69;15678636;28;20195;-53
2023/11/06 17:16:06;;;;;;;0.00;0.00;;;;;;;12.47;57.55;99965.41;15686624;28;20505;-55
2023/11/06 17:23:41;;;;;;;0.00;0.00;;;;;;;12.42;57.09;99973.38;15679384;28;20142;-52
2023/11/06 17:31:15;;;;;;;0.00;0.00;;;;;;;12.43;57.02;99979.56;15688218;28;20049;-51
2023/11/06 17:38:49;;;;;;;;;;;;;;;12.31;56.97;99982.34;15698591;28;20140;-52
2023/11/06 17:46:23;;;;;;;0.17;0.17;;;;;;;12.13;57.60;99991.41;15708704;23;20408;-54
2023/11/06 17:54:00;;;;;;;0.00;0.00;;;;;;;11.98;58.05;99993.75;15787565;28;20194;-55
2023/11/06 18:01:38;;;;;;;0.63;0.63;;;;;;;11.87;58.15;100000.00;15783661;28;20510;-50
2023/11/06 18:09:13;;;;;;;0.00;0.00;;;;;;;11.69;58.36;100012.47;15790643;28;20048;-55
2023/11/06 18:16:49;;;;;;;0.00;0.00;;;;;;;11.60;58.97;100007.69;15780112;28;20036;-56
2023/11/06 18:24:23;;;;;;;0.00;0.00;;;;;;;11.75;58.18;100016.13;15798465;28;20660;-55
2023/11/06 18:32:08;;;;;;;0.03;0.03;;;;;;;11.75;57.85;100013.44;15799847;28;20101;-48
2023/11/06 18:39:44;;;;;;;0.00;0.00;;;;;;;11.13;58.77;100018.44;15803029;28;20393;-54
2023/11/06 18:47:18;;;;;;;0.00;0.00;;;;;;;11.38;58.30;100021.75;15781353;28;20058;-51
2023/11/06 18:54:54;;;;;;;0.00;0.00;;;;;;;11.24;58.71;100029.19;15799110;28;20052;-53
2023/11/06 19:02:30;;;;;;;0.98;0.55;;;;;;;10.88;59.57;100037.41;15799966;28;20514;-54
2023/11/06 19:10:05;;;;;;;0.00;0.00;;;;;;;10.87;59.59;100050.03;15800632;28;20051;-51
2023/11/06 19:17:39;;;;;;;0.00;0.00;;;;;;;10.84;59.39;100052.34;15781363;28;20139;-53
2023/11/06 19:25:13;;;;;;;2.20;1.10;;;;;;;10.72;59.98;100063.88;15798779;28;20032;-51
2023/11/06 19:32:46;;;;;;;0.00;0.00;;;;;;;10.97;59.58;100063.72;15798629;28;20044;-53
2023/11/06 19:40:21;;;;;;;0.00;0.00;;;;;;;11.18;58.71;100066.91;15779541;28;20186;-53
2023/11/06 19:47:56;;;;;;;6.80;2.17;;;;;;;11.01;59.83;100064.06;15799224;28;20064;-55
2023/11/06 19:55:31;;;;;;;0.00;0.00;;;;;;;10.87;60.23;100068.00;15797854;28;20100;-53
2023/11/06 20:03:05;;;;;;;0.00;0.00;;;;;;;11.04;59.75;100068.16;15778918;28;20061;-56
2023/11/06 20:10:40;;;;;;;0.00;0.00;;;;;;;10.81;60.51;100077.78;15793972;28;20476;-56
2023/11/06 20:18:13;;;;;;;0.00;0.00;;;;;;;10.70;60.20;100075.88;15782418;28;20036;-48
2023/11/06 20:25:48;;;;;;;0.15;0.15;;;;;;;10.84;59.91;100085.38;15795817;28;20143;-50
2023/11/06 20:33:22;;;;;;;0.00;0.00;;;;;;;10.25;61.57;100083.44;15776484;28;20114;-47
2023/11/06 20:40:56;;;;;;;0.00;0.00;;;;;;;10.67;60.60;100092.41;15794060;28;20085;-54
2023/11/06 20:48:30;;;;;;;0.00;0.00;;;;;;;10.48;61.09;100087.06;15793590;28;20040;-56
2023/11/06 20:56:05;;;;;;;;;;;;;;;9.88;63.18;100097.63;15775837;28;20105;-50
2023/11/06 21:03:38;;;;;;;9.65;1.75;;;;;;;10.06;62.62;100109.41;15791239;28;20186;-49
2023/11/06 21:11:13;;;;;;;0.85;0.65;;;;;;;9.66;63.86;100115.16;15782870;28;20044;-51
2023/11/06 21:18:46;;;;;;;0.05;0.05;;;;;;;9.63;64.52;100107.56;15792724;28;20064;-47
2023/11/06 21:26:20;;;;;;;0.00;0.00;;;;;;;9.47;64.68;100114.28;15791963;28;20048;-48
2023/11/06 21:33:55;;;;;;;0.00;0.00;;;;;;;9.62;64.70;100113.97;15792578;28;20158;-51
2023/11/06 21:41:31;;;;;;;0.00;0.00;;;;;;;9.55;65.31;100121.22;15773767;28;20514;-52
2023/11/06 21:49:04;;;;;;;0.52;0.52;;;;;;;9.37;66.22;100146.91;15790322;28;20149;-56
2023/11/06 21:56:41;;;;;;;0.00;0.00;;;;;;;9.63;65.59;100137.03;15783075;28;20074;-54
2023/11/06 22:04:14;;;;;;;0.00;0.00;;;;;;;9.51;66.37;100152.16;15788104;28;20468;-52
2023/11/06 22:11:48;;;;;;;0.00;0.00;;;;;;;9.55;66.72;100164.91;15783660;28;20272;-51
2023/11/06 22:19:24;;;;;;;0.00;0.00;;;;;;;9.50;67.50;100164.72;15783458;28;20079;-58
2023/11/06 22:27:01;;;;;;;0.00;0.00;;;;;;;9.58;68.01;100179.72;15784969;28;20365;-53
2023/11/06 22:34:35;;;;;;;0.00;0.00;;;;;;;9.73;68.23;100184.78;15789472;28;20036;-53
2023/11/06 22:42:10;;;;;;;0.00;0.00;;;;;;;9.84;68.45;100198.31;15789475;28;20515;-54
2023/11/06 22:49:43;;;;;;;0.00;0.00;;;;;;;9.88;68.83;100206.69;15771565;28;20059;-50
2023/11/06 22:57:19;;;;;;;0.00;0.00;;;;;;;10.20;68.12;100197.53;15789021;28;20135;-53
2023/11/06 23:04:52;;;;;;;0.00;0.00;;;;;;;10.19;68.30;100209.31;15757439;28;20469;-51
2023/11/06 23:12:27;;;;;;;0.00;0.00;;;;;;;9.90;69.10;100215.38;15782650;28;20090;-55
2023/11/06 23:20:00;;;;;;;0.00;0.00;;;;;;;10.18;68.61;100222.97;15798499;28;20101;-56
2023/11/06 23:27:35;;;;;;;0.00;0.00;;;;;;;9.79;70.13;100234.81;15798999;28;20044;-52
2023/11/06 23:35:11;;;;;;;1.27;0.28;;;;;;;10.28;69.06;100231.34;15779027;28;20048;-58
2023/11/06 23:42:45;;;;;;;0.10;0.10;;;;;;;10.00;70.22;100247.03;15798616;28;20064;-52
2023/11/06 23:50:19;;;;;;;0.00;0.00;;;;;;;10.14;69.32;100253.94;15780560;28;20093;-53
2023/11/06 23:57:54;;;;;;;5.38;1.38;;;;;;;9.86;70.30;100263.22;15779625;28;20040;-56
